sensor_id;sensor_type;location;lat;lon;timestamp;temperature;humidity
7564;DHT22;3823;53.586;10.040;2023-06-14T04:01:36;15.90;1.00
7564;DHT22;3823;53.586;10.040;2023-06-14T04:04:02;15.90;1.00
7564;DHT22;3823;53.586;10.040;2023-06-14T04:06:28;15.80;1.00
7564;DHT22;3823;53.586;10.040;2023-06-14T04:09:01;15.90;1.00
7564;DHT22;3823;53.586;10.040;2023-06-14T04:11:27;15.90;1.00
7564;DHT22;3823;53.586;10.040;2023-06-14T04:13:53;15.70;1.00
7564;DHT22;3823;53.586;10.040;2023-06-14T04:16:21;15.70;4.10
7564;DHT22;3823;53.586;10.040;2023-06-14T04:18:48;15.60;11.90
7564;DHT22;3823;53.586;10.040;2023-06-14T04:21:16;15.70;16.10
7564;DHT22;3823;53.586;10.040;2023-06-14T04:23:42;15.70;25.40
7564;DHT22;3823;53.586;10.040;2023-06-14T04:26:09;15.70;11.50
7564;DHT22;3823;53.586;10.040;2023-06-14T04:28:36;15.80;14.30
7564;DHT22;3823;53.586;10.040;2023-06-14T04:31:06;15.90;26.80
7564;DHT22;3823;53.586;10.040;2023-06-14T04:33:35;16.10;6.60
7564;DHT22;3823;53.586;10.040;2023-06-14T04:36:11;16.10;1.00
7564;DHT22;3823;53.586;10.040;2023-06-14T04:38:43;16.30;1.00
7564;DHT22;3823;53.586;10.040;2023-06-14T04:41:10;16.40;1.00
7564;DHT22;3823;53.586;10.040;2023-06-14T04:43:37;16.50;1.00
7564;DHT22;3823;53.586;10.040;2023-06-14T04:46:06;16.50;1.00
7564;DHT22;3823;53.586;10.040;2023-06-14T04:48:36;16.70;1.00
7564;DHT22;3823;53.586;10.040;2023-06-14T04:51:03;16.70;1.00
7564;DHT22;3823;53.586;10.040;2023-06-14T04:53:29;16.90;1.00
7564;DHT22;3823;53.586;10.040;2023-06-14T04:55:56;16.90;1.00
7564;DHT22;3823;53.586;10.040;2023-06-14T04:58:22;17.00;1.00
7564;DHT22;3823;53.586;10.040;2023-06-14T05:00:47;16.90;1.00
7564;DHT22;3823;53.586;10.040;2023-06-14T05:03:13;17.00;1.00
7564;DHT22;3823;53.586;10.040;2023-06-14T05:05:40;17.00;1.00
7564;DHT22;3823;53.586;10.040;2023-06-14T05:08:12;17.00;1.00
7564;DHT22;3823;53.586;10.040;2023-06-14T05:10:38;17.20;1.00
7564;DHT22;3823;53.586;10.040;2023-06-14T05:13:03;17.50;1.00
7564;DHT22;3823;53.586;10.040;2023-06-14T05:15:29;17.60;1.00
7564;DHT22;3823;53.586;10.040;2023-06-14T05:17:55;17.60;1.00
7564;DHT22;3823;53.586;10.040;2023-06-14T05:20:22;17.80;1.00
7564;DHT22;3823;53.586;10.040;2023-06-14T05:22:53;17.80;1.00
7564;DHT22;3823;53.586;10.040;2023-06-14T05:25:19;17.90;1.00
7564;DHT22;3823;53.586;10.040;2023-06-14T05:27:45;17.90;1.00
7564;DHT22;3823;53.586;10.040;2023-06-14T05:30:11;18.10;1.00
7564;DHT22;3823;53.586;10.040;2023-06-14T05:32:37;18.10;1.00
7564;DHT22;3823;53.586;10.040;2023-06-14T05:35:03;18.00;1.00
7564;DHT22;3823;53.586;10.040;2023-06-14T05:37:29;17.90;1.00
7564;DHT22;3823;53.586;10.040;2023-06-14T05:39:56;18.10;1.00
7564;DHT22;3823;53.586;10.040;2023-06-14T05:42:22;18.30;1.00
7564;DHT22;3823;53.586;10.040;2023-06-14T05:44:47;18.40;1.00
7564;DHT22;3823;53.586;10.040;2023-06-14T05:47:13;18.60;1.00
7564;DHT22;3823;53.586;10.040;2023-06-14T05:49:38;18.80;1.00
7564;DHT22;3823;53.586;10.040;2023-06-14T05:52:04;19.00;1.00
7564;DHT22;3823;53.586;10.040;2023-06-14T05:54:30;19.00;1.00
7564;DHT22;3823;53.586;10.040;2023-06-14T05:56:55;19.10;1.00
7564;DHT22;3823;53.586;10.040;2023-06-14T05:59:26;19.00;1.00
7564;DHT22;3823;53.586;10.040;2023-06-14T06:01:52;19.10;1.00
7564;DHT22;3823;53.586;10.040;2023-06-14T06:04:17;19.10;1.00
7564;DHT22;3823;53.586;10.040;2023-06-14T06:06:43;19.00;1.00
7564;DHT22;3823;53.586;10.040;2023-06-14T06:09:08;18.90;1.00
7564;DHT22;3823;53.586;10.040;2023-06-14T06:11:34;19.10;1.00
7564;DHT22;3823;53.586;10.040;2023-06-14T06:13:59;19.40;1.00
7564;DHT22;3823;53.586;10.040;2023-06-14T06:16:25;19.50;1.00
7564;DHT22;3823;53.586;10.040;2023-06-14T06:18:51;19.70;1.00
7564;DHT22;3823;53.586;10.040;2023-06-14T06:21:16;19.60;1.00
7564;DHT22;3823;53.586;10.040;2023-06-14T06:23:42;19.20;1.00
7564;DHT22;3823;53.586;10.040;2023-06-14T06:26:07;18.80;1.00
7564;DHT22;3823;53.586;10.040;2023-06-14T06:28:33;18.90;1.00
7564;DHT22;3823;53.586;10.040;2023-06-14T06:30:58;18.80;1.00
7564;DHT22;3823;53.586;10.040;2023-06-14T06:33:24;18.80;1.00
7564;DHT22;3823;53.586;10.040;2023-06-14T06:35:50;18.90;1.00
7564;DHT22;3823;53.586;10.040;2023-06-14T06:38:15;18.80;1.00
7564;DHT22;3823;53.586;10.040;2023-06-14T06:40:43;19.00;1.00
7564;DHT22;3823;53.586;10.040;2023-06-14T06:43:09;19.10;1.00
7564;DHT22;3823;53.586;10.040;2023-06-14T06:45:35;19.30;1.00
7564;DHT22;3823;53.586;10.040;2023-06-14T06:48:00;19.50;1.00
7564;DHT22;3823;53.586;10.040;2023-06-14T06:50:26;20.00;1.00
7564;DHT22;3823;53.586;10.040;2023-06-14T06:52:51;20.10;1.00
7564;DHT22;3823;53.586;10.040;2023-06-14T06:55:18;20.20;1.00
7564;DHT22;3823;53.586;10.040;2023-06-14T06:57:43;20.30;1.00
7564;DHT22;3823;53.586;10.040;2023-06-14T07:00:09;20.40;1.00
7564;DHT22;3823;53.586;10.040;2023-06-14T07:02:36;20.20;1.00
7564;DHT22;3823;53.586;10.040;2023-06-14T07:05:02;20.20;1.00
7564;DHT22;3823;53.586;10.040;2023-06-14T07:07:27;20.10;1.00
7564;DHT22;3823;53.586;10.040;2023-06-14T07:09:53;20.20;1.00
7564;DHT22;3823;53.586;10.040;2023-06-14T07:12:18;20.10;1.00
7564;DHT22;3823;53.586;10.040;2023-06-14T07:14:44;20.00;1.00
7564;DHT22;3823;53.586;10.040;2023-06-14T07:17:10;20.20;1.00
7564;DHT22;3823;53.586;10.040;2023-06-14T07:19:35;20.50;1.00
7564;DHT22;3823;53.586;10.040;2023-06-14T07:22:01;20.50;1.00
7564;DHT22;3823;53.586;10.040;2023-06-14T07:24:27;20.70;1.00
7564;DHT22;3823;53.586;10.040;2023-06-14T07:26:53;20.80;1.00
7564;DHT22;3823;53.586;10.040;2023-06-14T07:29:20;20.80;1.00
7564;DHT22;3823;53.586;10.040;2023-06-14T07:31:46;20.80;1.00
7564;DHT22;3823;53.586;10.040;2023-06-14T07:34:12;20.90;1.00
7564;DHT22;3823;53.586;10.040;2023-06-14T07:36:38;21.10;1.00
7564;DHT22;3823;53.586;10.040;2023-06-14T07:39:04;21.10;1.00
7564;DHT22;3823;53.586;10.040;2023-06-14T07:41:32;21.30;1.00
7564;DHT22;3823;53.586;10.040;2023-06-14T07:43:58;21.30;1.00
7564;DHT22;3823;53.586;10.040;2023-06-14T07:46:23;21.50;1.00
7564;DHT22;3823;53.586;10.040;2023-06-14T07:48:49;21.70;1.00
7564;DHT22;3823;53.586;10.040;2023-06-14T07:51:15;21.60;1.00
7564;DHT22;3823;53.586;10.040;2023-06-14T07:53:40;21.30;1.00
7564;DHT22;3823;53.586;10.040;2023-06-14T07:56:06;21.30;1.00
7564;DHT22;3823;53.586;10.040;2023-06-14T07:58:32;21.50;1.00
7564;DHT22;3823;53.586;10.040;2023-06-14T08:00:58;21.90;1.00
7564;DHT22;3823;53.586;10.040;2023-06-14T08:03:23;22.10;1.00
7564;DHT22;3823;53.586;10.040;2023-06-14T08:05:49;21.70;1.00
7564;DHT22;3823;53.586;10.040;2023-06-14T08:08:15;21.90;1.00
7564;DHT22;3823;53.586;10.040;2023-06-14T08:10:41;22.10;1.00
7564;DHT22;3823;53.586;10.040;2023-06-14T08:13:06;22.60;1.00
7564;DHT22;3823;53.586;10.040;2023-06-14T08:15:32;22.90;1.00
7564;DHT22;3823;53.586;10.040;2023-06-14T08:17:59;23.10;1.00
7564;DHT22;3823;53.586;10.040;2023-06-14T08:20:26;23.30;1.00
7564;DHT22;3823;53.586;10.040;2023-06-14T08:22:52;23.40;1.00
7564;DHT22;3823;53.586;10.040;2023-06-14T08:25:20;23.20;1.00
7564;DHT22;3823;53.586;10.040;2023-06-14T08:27:46;22.90;1.00
7564;DHT22;3823;53.586;10.040;2023-06-14T08:30:12;22.60;1.00
7564;DHT22;3823;53.586;10.040;2023-06-14T08:32:38;22.80;1.00
7564;DHT22;3823;53.586;10.040;2023-06-14T08:35:04;23.00;1.00
7564;DHT22;3823;53.586;10.040;2023-06-14T08:37:31;23.40;1.00
7564;DHT22;3823;53.586;10.040;2023-06-14T08:39:56;23.90;1.00
7564;DHT22;3823;53.586;10.040;2023-06-14T08:42:23;23.70;1.00
7564;DHT22;3823;53.586;10.040;2023-06-14T08:44:49;23.00;1.00
7564;DHT22;3823;53.586;10.040;2023-06-14T08:47:15;22.80;1.00
7564;DHT22;3823;53.586;10.040;2023-06-14T08:49:46;23.30;1.00
7564;DHT22;3823;53.586;10.040;2023-06-14T08:52:13;23.40;1.00
7564;DHT22;3823;53.586;10.040;2023-06-14T08:54:44;23.70;1.00
7564;DHT22;3823;53.586;10.040;2023-06-14T08:57:14;24.30;1.00
7564;DHT22;3823;53.586;10.040;2023-06-14T08:59:45;23.90;1.00
7564;DHT22;3823;53.586;10.040;2023-06-14T09:02:12;23.70;1.00
7564;DHT22;3823;53.586;10.040;2023-06-14T09:04:39;23.40;1.00
7564;DHT22;3823;53.586;10.040;2023-06-14T09:07:06;23.80;1.00
7564;DHT22;3823;53.586;10.040;2023-06-14T09:09:32;24.30;1.00
7564;DHT22;3823;53.586;10.040;2023-06-14T09:11:57;24.40;1.00
7564;DHT22;3823;53.586;10.040;2023-06-14T09:14:24;24.50;1.00
7564;DHT22;3823;53.586;10.040;2023-06-14T09:16:54;23.90;1.00
7564;DHT22;3823;53.586;10.040;2023-06-14T09:19:26;23.40;1.00
7564;DHT22;3823;53.586;10.040;2023-06-14T09:21:52;23.60;1.00
7564;DHT22;3823;53.586;10.040;2023-06-14T09:24:19;23.80;1.00
7564;DHT22;3823;53.586;10.040;2023-06-14T09:26:47;23.70;1.00
7564;DHT22;3823;53.586;10.040;2023-06-14T09:29:12;23.90;1.00
7564;DHT22;3823;53.586;10.040;2023-06-14T09:31:38;23.70;1.00
7564;DHT22;3823;53.586;10.040;2023-06-14T09:34:05;24.10;1.00
7564;DHT22;3823;53.586;10.040;2023-06-14T09:36:31;24.40;1.00
7564;DHT22;3823;53.586;10.040;2023-06-14T09:39:02;23.90;1.00
7564;DHT22;3823;53.586;10.040;2023-06-14T09:41:32;23.70;1.00
7564;DHT22;3823;53.586;10.040;2023-06-14T09:44:02;24.10;1.00
7564;DHT22;3823;53.586;10.040;2023-06-14T09:46:29;24.70;1.00
7564;DHT22;3823;53.586;10.040;2023-06-14T09:48:56;25.20;1.00
7564;DHT22;3823;53.586;10.040;2023-06-14T09:51:23;24.80;1.00
7564;DHT22;3823;53.586;10.040;2023-06-14T09:53:49;24.70;1.00
7564;DHT22;3823;53.586;10.040;2023-06-14T09:56:37;25.30;1.00
7564;DHT22;3823;53.586;10.040;2023-06-14T09:59:05;25.30;1.00
7564;DHT22;3823;53.586;10.040;2023-06-14T10:01:33;25.50;1.00
7564;DHT22;3823;53.586;10.040;2023-06-14T10:04:03;24.80;1.00
7564;DHT22;3823;53.586;10.040;2023-06-14T10:06:29;24.70;1.00
7564;DHT22;3823;53.586;10.040;2023-06-14T10:08:58;24.70;1.00
7564;DHT22;3823;53.586;10.040;2023-06-14T10:11:26;24.70;1.00
7564;DHT22;3823;53.586;10.040;2023-06-14T10:13:53;24.90;1.00
7564;DHT22;3823;53.586;10.040;2023-06-14T10:16:28;24.80;1.00
7564;DHT22;3823;53.586;10.040;2023-06-14T10:19:19;25.00;1.00
7564;DHT22;3823;53.586;10.040;2023-06-14T10:24:29;25.20;1.00
7564;DHT22;3823;53.586;10.040;2023-06-14T10:26:57;25.60;1.00
7564;DHT22;3823;53.586;10.040;2023-06-14T10:29:24;25.60;1.00
7564;DHT22;3823;53.586;10.040;2023-06-14T10:31:51;25.40;1.00
7564;DHT22;3823;53.586;10.040;2023-06-14T10:34:28;25.20;1.00
7564;DHT22;3823;53.586;10.040;2023-06-14T10:39:29;25.40;1.00
7564;DHT22;3823;53.586;10.040;2023-06-14T10:41:56;25.20;1.00
7564;DHT22;3823;53.586;10.040;2023-06-14T10:46:53;26.30;1.00
7564;DHT22;3823;53.586;10.040;2023-06-14T10:49:19;26.20;1.00
7564;DHT22;3823;53.586;10.040;2023-06-14T10:51:49;25.50;1.00
7564;DHT22;3823;53.586;10.040;2023-06-14T10:54:20;25.60;1.00
7564;DHT22;3823;53.586;10.040;2023-06-14T10:56:46;25.40;1.00
7564;DHT22;3823;53.586;10.040;2023-06-14T10:59:13;25.30;1.00
7564;DHT22;3823;53.586;10.040;2023-06-14T11:01:45;25.20;1.00
7564;DHT22;3823;53.586;10.040;2023-06-14T11:04:20;24.80;1.00
7564;DHT22;3823;53.586;10.040;2023-06-14T11:06:46;24.90;1.00
7564;DHT22;3823;53.586;10.040;2023-06-14T11:11:57;25.40;1.00
7564;DHT22;3823;53.586;10.040;2023-06-14T11:14:24;25.20;1.00
7564;DHT22;3823;53.586;10.040;2023-06-14T11:16:50;25.00;1.00
7564;DHT22;3823;53.586;10.040;2023-06-14T11:19:16;24.90;1.00
7564;DHT22;3823;53.586;10.040;2023-06-14T11:21:47;24.70;1.00
7564;DHT22;3823;53.586;10.040;2023-06-14T11:24:13;24.90;1.00
7564;DHT22;3823;53.586;10.040;2023-06-14T11:26:40;24.90;1.00
7564;DHT22;3823;53.586;10.040;2023-06-14T11:29:06;24.40;1.00
7564;DHT22;3823;53.586;10.040;2023-06-14T11:31:31;24.30;1.00
7564;DHT22;3823;53.586;10.040;2023-06-14T11:33:58;24.20;1.00
7564;DHT22;3823;53.586;10.040;2023-06-14T11:36:28;24.10;1.00
7564;DHT22;3823;53.586;10.040;2023-06-14T11:39:02;24.20;1.00
7564;DHT22;3823;53.586;10.040;2023-06-14T11:41:38;24.50;1.00
7564;DHT22;3823;53.586;10.040;2023-06-14T11:44:05;24.70;1.00
7564;DHT22;3823;53.586;10.040;2023-06-14T11:46:31;24.90;1.00
7564;DHT22;3823;53.586;10.040;2023-06-14T11:48:57;25.10;1.00
7564;DHT22;3823;53.586;10.040;2023-06-14T11:51:22;25.50;1.00
7564;DHT22;3823;53.586;10.040;2023-06-14T11:53:48;25.40;1.00
7564;DHT22;3823;53.586;10.040;2023-06-14T11:56:14;25.10;1.00
7564;DHT22;3823;53.586;10.040;2023-06-14T11:58:42;24.80;1.00
7564;DHT22;3823;53.586;10.040;2023-06-14T12:01:07;25.10;1.00
7564;DHT22;3823;53.586;10.040;2023-06-14T12:03:33;25.60;1.00
7564;DHT22;3823;53.586;10.040;2023-06-14T12:06:07;26.00;1.00
7564;DHT22;3823;53.586;10.040;2023-06-14T12:08:35;26.20;1.00
7564;DHT22;3823;53.586;10.040;2023-06-14T12:11:13;26.40;1.00
7564;DHT22;3823;53.586;10.040;2023-06-14T12:13:39;26.70;1.00
7564;DHT22;3823;53.586;10.040;2023-06-14T12:16:09;26.80;1.00
7564;DHT22;3823;53.586;10.040;2023-06-14T12:18:36;26.60;1.00
7564;DHT22;3823;53.586;10.040;2023-06-14T12:21:05;26.50;1.00
7564;DHT22;3823;53.586;10.040;2023-06-14T12:23:44;26.40;1.00
7564;DHT22;3823;53.586;10.040;2023-06-14T12:26:13;26.70;1.00
7564;DHT22;3823;53.586;10.040;2023-06-14T12:28:40;26.60;1.00
7564;DHT22;3823;53.586;10.040;2023-06-14T12:31:07;26.50;1.00
7564;DHT22;3823;53.586;10.040;2023-06-14T12:33:32;25.70;1.00
7564;DHT22;3823;53.586;10.040;2023-06-14T12:35:58;25.50;1.00
7564;DHT22;3823;53.586;10.040;2023-06-14T12:38:24;25.50;1.00
7564;DHT22;3823;53.586;10.040;2023-06-14T12:40:50;25.50;1.00
7564;DHT22;3823;53.586;10.040;2023-06-14T12:43:15;25.70;1.00
7564;DHT22;3823;53.586;10.040;2023-06-14T12:45:41;26.10;1.00
7564;DHT22;3823;53.586;10.040;2023-06-14T12:48:06;26.40;1.00
7564;DHT22;3823;53.586;10.040;2023-06-14T12:50:34;26.50;1.00
7564;DHT22;3823;53.586;10.040;2023-06-14T12:52:59;26.50;1.00
7564;DHT22;3823;53.586;10.040;2023-06-14T12:55:25;26.40;1.00
7564;DHT22;3823;53.586;10.040;2023-06-14T12:57:51;25.70;1.00
7564;DHT22;3823;53.586;10.040;2023-06-14T13:00:17;25.40;1.00
7564;DHT22;3823;53.586;10.040;2023-06-14T13:02:43;25.40;1.00
7564;DHT22;3823;53.586;10.040;2023-06-14T13:05:09;25.60;1.00
7564;DHT22;3823;53.586;10.040;2023-06-14T13:07:35;25.80;1.00
7564;DHT22;3823;53.586;10.040;2023-06-14T13:10:00;26.00;1.00
7564;DHT22;3823;53.586;10.040;2023-06-14T13:12:26;26.20;1.00
7564;DHT22;3823;53.586;10.040;2023-06-14T13:14:52;26.20;1.00
7564;DHT22;3823;53.586;10.040;2023-06-14T13:17:17;26.30;1.00
7564;DHT22;3823;53.586;10.040;2023-06-14T13:19:43;26.50;1.00
7564;DHT22;3823;53.586;10.040;2023-06-14T13:22:08;26.80;1.00
7564;DHT22;3823;53.586;10.040;2023-06-14T13:24:34;26.60;1.00
7564;DHT22;3823;53.586;10.040;2023-06-14T13:26:59;25.80;1.00
7564;DHT22;3823;53.586;10.040;2023-06-14T13:29:26;25.30;1.00
7564;DHT22;3823;53.586;10.040;2023-06-14T13:31:52;25.00;1.00
7564;DHT22;3823;53.586;10.040;2023-06-14T13:34:18;25.20;1.00
7564;DHT22;3823;53.586;10.040;2023-06-14T13:36:43;25.20;1.00
7564;DHT22;3823;53.586;10.040;2023-06-14T13:39:09;25.30;1.00
7564;DHT22;3823;53.586;10.040;2023-06-14T13:41:36;25.60;1.00
7564;DHT22;3823;53.586;10.040;2023-06-14T13:44:02;25.90;1.00
7564;DHT22;3823;53.586;10.040;2023-06-14T13:46:29;26.30;1.00
7564;DHT22;3823;53.586;10.040;2023-06-14T13:48:55;26.40;1.00
7564;DHT22;3823;53.586;10.040;2023-06-14T13:51:20;26.40;1.00
7564;DHT22;3823;53.586;10.040;2023-06-14T13:53:48;26.10;1.00
7564;DHT22;3823;53.586;10.040;2023-06-14T13:56:14;25.70;1.00
7564;DHT22;3823;53.586;10.040;2023-06-14T13:58:39;25.50;1.00
7564;DHT22;3823;53.586;10.040;2023-06-14T14:01:05;25.60;1.00
7564;DHT22;3823;53.586;10.040;2023-06-14T14:03:30;25.60;1.00
7564;DHT22;3823;53.586;10.040;2023-06-14T14:05:57;25.50;1.00
7564;DHT22;3823;53.586;10.040;2023-06-14T14:08:22;25.60;1.00
7564;DHT22;3823;53.586;10.040;2023-06-14T14:10:48;25.60;1.00
7564;DHT22;3823;53.586;10.040;2023-06-14T14:13:13;25.70;1.00
7564;DHT22;3823;53.586;10.040;2023-06-14T14:15:39;25.90;1.00
7564;DHT22;3823;53.586;10.040;2023-06-14T14:18:05;26.10;1.00
7564;DHT22;3823;53.586;10.040;2023-06-14T14:20:31;26.10;1.00
7564;DHT22;3823;53.586;10.040;2023-06-14T14:22:56;25.80;1.00
7564;DHT22;3823;53.586;10.040;2023-06-14T14:25:22;25.80;1.00
7564;DHT22;3823;53.586;10.040;2023-06-14T14:27:47;25.90;1.00
7564;DHT22;3823;53.586;10.040;2023-06-14T14:30:13;26.00;1.00
7564;DHT22;3823;53.586;10.040;2023-06-14T14:32:42;25.40;1.00
7564;DHT22;3823;53.586;10.040;2023-06-14T14:35:09;25.40;1.00
7564;DHT22;3823;53.586;10.040;2023-06-14T14:37:36;25.60;1.00
7564;DHT22;3823;53.586;10.040;2023-06-14T14:40:01;25.80;1.00
7564;DHT22;3823;53.586;10.040;2023-06-14T14:42:28;25.70;1.00
7564;DHT22;3823;53.586;10.040;2023-06-14T14:44:54;25.60;1.00
7564;DHT22;3823;53.586;10.040;2023-06-14T14:47:20;25.60;1.00
7564;DHT22;3823;53.586;10.040;2023-06-14T14:49:45;25.60;1.00
7564;DHT22;3823;53.586;10.040;2023-06-14T14:52:11;25.50;1.00
7564;DHT22;3823;53.586;10.040;2023-06-14T14:54:38;25.50;1.00
7564;DHT22;3823;53.586;10.040;2023-06-14T14:57:04;25.60;1.00
7564;DHT22;3823;53.586;10.040;2023-06-14T14:59:30;25.60;1.00
7564;DHT22;3823;53.586;10.040;2023-06-14T15:01:56;25.40;1.00
7564;DHT22;3823;53.586;10.040;2023-06-14T15:04:21;25.20;1.00
7564;DHT22;3823;53.586;10.040;2023-06-14T15:06:47;25.30;1.00
7564;DHT22;3823;53.586;10.040;2023-06-14T15:09:12;25.30;1.00
7564;DHT22;3823;53.586;10.040;2023-06-14T15:11:38;25.30;1.00
7564;DHT22;3823;53.586;10.040;2023-06-14T15:14:03;25.00;1.00
7564;DHT22;3823;53.586;10.040;2023-06-14T15:16:29;25.00;1.00
7564;DHT22;3823;53.586;10.040;2023-06-14T15:18:55;25.00;1.00
7564;DHT22;3823;53.586;10.040;2023-06-14T15:21:20;25.00;1.00
7564;DHT22;3823;53.586;10.040;2023-06-14T15:23:47;25.00;1.00
7564;DHT22;3823;53.586;10.040;2023-06-14T15:26:13;24.80;1.00
7564;DHT22;3823;53.586;10.040;2023-06-14T15:28:38;24.90;1.00
7564;DHT22;3823;53.586;10.040;2023-06-14T15:31:05;25.10;1.00
7564;DHT22;3823;53.586;10.040;2023-06-14T15:33:30;25.10;1.00
7564;DHT22;3823;53.586;10.040;2023-06-14T15:35:56;24.80;1.00
7564;DHT22;3823;53.586;10.040;2023-06-14T15:38:22;24.50;1.00
7564;DHT22;3823;53.586;10.040;2023-06-14T15:40:48;24.50;1.00
7564;DHT22;3823;53.586;10.040;2023-06-14T15:43:14;24.70;1.00
7564;DHT22;3823;53.586;10.040;2023-06-14T15:45:39;24.80;1.00
7564;DHT22;3823;53.586;10.040;2023-06-14T15:48:05;24.90;1.00
7564;DHT22;3823;53.586;10.040;2023-06-14T15:50:31;25.00;1.00
7564;DHT22;3823;53.586;10.040;2023-06-14T15:52:57;25.00;1.00
7564;DHT22;3823;53.586;10.040;2023-06-14T15:55:22;25.20;1.00
7564;DHT22;3823;53.586;10.040;2023-06-14T15:57:48;25.40;1.00
7564;DHT22;3823;53.586;10.040;2023-06-14T16:00:14;25.40;1.00
7564;DHT22;3823;53.586;10.040;2023-06-14T16:02:40;25.20;1.00
7564;DHT22;3823;53.586;10.040;2023-06-14T16:05:05;25.10;1.00
7564;DHT22;3823;53.586;10.040;2023-06-14T16:07:31;24.90;1.00
7564;DHT22;3823;53.586;10.040;2023-06-14T16:09:57;24.90;1.00
7564;DHT22;3823;53.586;10.040;2023-06-14T16:12:22;24.70;1.00
7564;DHT22;3823;53.586;10.040;2023-06-14T16:14:48;24.70;1.00
7564;DHT22;3823;53.586;10.040;2023-06-14T16:17:13;24.60;1.00
7564;DHT22;3823;53.586;10.040;2023-06-14T16:19:39;24.60;1.00
7564;DHT22;3823;53.586;10.040;2023-06-14T16:22:06;24.50;1.00
7564;DHT22;3823;53.586;10.040;2023-06-14T16:24:31;24.50;1.00
7564;DHT22;3823;53.586;10.040;2023-06-14T16:26:57;24.50;1.00
7564;DHT22;3823;53.586;10.040;2023-06-14T16:29:22;24.60;1.00
7564;DHT22;3823;53.586;10.040;2023-06-14T16:31:48;24.50;1.00
7564;DHT22;3823;53.586;10.040;2023-06-14T16:34:14;24.50;1.00
7564;DHT22;3823;53.586;10.040;2023-06-14T16:36:42;24.50;1.00
7564;DHT22;3823;53.586;10.040;2023-06-14T16:39:08;24.40;1.00
7564;DHT22;3823;53.586;10.040;2023-06-14T16:41:33;24.40;1.00
7564;DHT22;3823;53.586;10.040;2023-06-14T16:43:59;24.40;1.00
7564;DHT22;3823;53.586;10.040;2023-06-14T16:46:29;24.30;1.00
7564;DHT22;3823;53.586;10.040;2023-06-14T16:48:56;24.20;1.00
7564;DHT22;3823;53.586;10.040;2023-06-14T16:51:21;24.00;1.00
7564;DHT22;3823;53.586;10.040;2023-06-14T16:53:47;23.90;1.00
7564;DHT22;3823;53.586;10.040;2023-06-14T16:56:12;23.90;1.00
7564;DHT22;3823;53.586;10.040;2023-06-14T16:58:38;23.80;1.00
7564;DHT22;3823;53.586;10.040;2023-06-14T17:01:03;23.90;1.00
7564;DHT22;3823;53.586;10.040;2023-06-14T17:03:29;23.80;1.00
7564;DHT22;3823;53.586;10.040;2023-06-14T17:05:57;23.90;1.00
7564;DHT22;3823;53.586;10.040;2023-06-14T17:08:23;23.90;1.00
7564;DHT22;3823;53.586;10.040;2023-06-14T17:10:49;23.80;1.00
7564;DHT22;3823;53.586;10.040;2023-06-14T17:13:16;23.50;1.00
7564;DHT22;3823;53.586;10.040;2023-06-14T17:15:41;23.50;1.00
7564;DHT22;3823;53.586;10.040;2023-06-14T17:18:07;23.30;1.00
7564;DHT22;3823;53.586;10.040;2023-06-14T17:20:33;23.10;1.00
7564;DHT22;3823;53.586;10.040;2023-06-14T17:22:58;23.10;1.00
7564;DHT22;3823;53.586;10.040;2023-06-14T17:25:24;23.10;1.00
7564;DHT22;3823;53.586;10.040;2023-06-14T17:27:50;23.10;1.00
7564;DHT22;3823;53.586;10.040;2023-06-14T17:30:15;23.20;1.00
7564;DHT22;3823;53.586;10.040;2023-06-14T17:32:41;23.10;1.00
7564;DHT22;3823;53.586;10.040;2023-06-14T17:35:07;23.20;1.00
7564;DHT22;3823;53.586;10.040;2023-06-14T17:37:32;23.20;1.00
7564;DHT22;3823;53.586;10.040;2023-06-14T17:39:58;23.30;1.00
7564;DHT22;3823;53.586;10.040;2023-06-14T17:42:23;23.40;1.00
7564;DHT22;3823;53.586;10.040;2023-06-14T17:44:49;23.40;1.00
7564;DHT22;3823;53.586;10.040;2023-06-14T17:47:21;23.50;1.00
7564;DHT22;3823;53.586;10.040;2023-06-14T17:49:46;23.50;1.00
7564;DHT22;3823;53.586;10.040;2023-06-14T17:52:15;23.50;1.00
7564;DHT22;3823;53.586;10.040;2023-06-14T17:54:41;23.40;1.00
7564;DHT22;3823;53.586;10.040;2023-06-14T17:57:06;23.40;1.00
7564;DHT22;3823;53.586;10.040;2023-06-14T17:59:32;23.40;1.00
7564;DHT22;3823;53.586;10.040;2023-06-14T18:01:57;23.30;1.00
7564;DHT22;3823;53.586;10.040;2023-06-14T18:04:24;23.20;1.00
7564;DHT22;3823;53.586;10.040;2023-06-14T18:06:51;23.10;1.00
7564;DHT22;3823;53.586;10.040;2023-06-14T18:09:16;23.00;1.00
7564;DHT22;3823;53.586;10.040;2023-06-14T18:11:42;23.10;1.00
7564;DHT22;3823;53.586;10.040;2023-06-14T18:14:07;22.90;1.00
7564;DHT22;3823;53.586;10.040;2023-06-14T18:16:33;22.90;1.00
7564;DHT22;3823;53.586;10.040;2023-06-14T18:18:58;22.80;1.00
7564;DHT22;3823;53.586;10.040;2023-06-14T18:21:24;22.80;1.00
7564;DHT22;3823;53.586;10.040;2023-06-14T18:23:49;22.80;1.00
7564;DHT22;3823;53.586;10.040;2023-06-14T18:26:19;22.70;1.00
7564;DHT22;3823;53.586;10.040;2023-06-14T18:28:45;22.50;1.00
7564;DHT22;3823;53.586;10.040;2023-06-14T18:31:10;22.60;1.00
7564;DHT22;3823;53.586;10.040;2023-06-14T18:33:36;22.50;1.00
7564;DHT22;3823;53.586;10.040;2023-06-14T18:36:01;22.60;1.00
7564;DHT22;3823;53.586;10.040;2023-06-14T18:38:27;22.60;1.00
7564;DHT22;3823;53.586;10.040;2023-06-14T18:40:53;22.50;1.00
7564;DHT22;3823;53.586;10.040;2023-06-14T18:43:19;22.50;1.00
7564;DHT22;3823;53.586;10.040;2023-06-14T18:45:45;22.60;1.00
7564;DHT22;3823;53.586;10.040;2023-06-14T18:48:10;22.50;1.00
7564;DHT22;3823;53.586;10.040;2023-06-14T18:50:36;22.60;1.00
7564;DHT22;3823;53.586;10.040;2023-06-14T18:53:02;22.60;1.00
7564;DHT22;3823;53.586;10.040;2023-06-14T18:55:27;22.60;1.00
7564;DHT22;3823;53.586;10.040;2023-06-14T18:57:53;22.50;1.00
7564;DHT22;3823;53.586;10.040;2023-06-14T19:00:19;22.50;1.00
7564;DHT22;3823;53.586;10.040;2023-06-14T19:02:44;22.50;1.00
7564;DHT22;3823;53.586;10.040;2023-06-14T19:05:11;22.40;1.00
7564;DHT22;3823;53.586;10.040;2023-06-14T19:07:37;22.30;1.00
7564;DHT22;3823;53.586;10.040;2023-06-14T19:10:02;22.30;1.00
7564;DHT22;3823;53.586;10.040;2023-06-14T19:12:28;22.20;1.00
7564;DHT22;3823;53.586;10.040;2023-06-14T19:14:53;22.20;1.00
7564;DHT22;3823;53.586;10.040;2023-06-14T19:17:19;22.10;1.00
7564;DHT22;3823;53.586;10.040;2023-06-14T19:19:45;22.00;1.00
7564;DHT22;3823;53.586;10.040;2023-06-14T19:22:10;22.10;1.00
7564;DHT22;3823;53.586;10.040;2023-06-14T19:24:37;22.20;1.00
7564;DHT22;3823;53.586;10.040;2023-06-14T19:27:03;22.30;1.00
7564;DHT22;3823;53.586;10.040;2023-06-14T19:29:28;22.20;1.00
7564;DHT22;3823;53.586;10.040;2023-06-14T19:31:55;22.20;1.00
7564;DHT22;3823;53.586;10.040;2023-06-14T19:34:21;22.20;1.00
7564;DHT22;3823;53.586;10.040;2023-06-14T19:36:47;22.20;1.00
7564;DHT22;3823;53.586;10.040;2023-06-14T19:39:12;22.20;1.00
7564;DHT22;3823;53.586;10.040;2023-06-14T19:41:38;22.20;1.00
7564;DHT22;3823;53.586;10.040;2023-06-14T19:44:03;22.20;1.00
7564;DHT22;3823;53.586;10.040;2023-06-14T19:46:29;22.20;1.00
7564;DHT22;3823;53.586;10.040;2023-06-14T19:48:55;22.20;1.00
7564;DHT22;3823;53.586;10.040;2023-06-14T19:51:20;22.20;1.00
7564;DHT22;3823;53.586;10.040;2023-06-14T19:53:47;22.20;1.00
7564;DHT22;3823;53.586;10.040;2023-06-14T19:56:12;22.10;1.00
7564;DHT22;3823;53.586;10.040;2023-06-14T19:58:38;22.00;1.00
7564;DHT22;3823;53.586;10.040;2023-06-14T20:01:04;22.00;1.00
7564;DHT22;3823;53.586;10.040;2023-06-14T20:03:30;21.90;1.00
7564;DHT22;3823;53.586;10.040;2023-06-14T20:05:55;21.90;1.00
7564;DHT22;3823;53.586;10.040;2023-06-14T20:08:21;21.80;1.00